Time;durP1;ratioP1;P1;durP2;ratioP2;P2;SDS_P1;SDS_P2;PMS_P1;PMS_P2;Temp;Humidity;BMP_temperature;BMP_pressure;BME280_temperature;BME280_humidity;BME280_pressure;Samples;Min_cycle;Max_cycle;Signal;HPM_P1;HPM_P2
2022/09/09 04:02:33;;;;;;;2.30;0.90;;;12.40;96.30;;;;;;4968900;28;20481;-80
2022/09/09 04:04:59;;;;;;;3.67;1.10;;;11.90;96.30;;;;;;4973884;28;20413;-80
2022/09/09 04:07:25;;;;;;;3.63;1.20;;;11.60;96.30;;;;;;4974969;28;20170;-80
2022/09/09 04:09:51;;;;;;;2.57;1.23;;;11.30;96.30;;;;;;4973827;28;20414;-80
2022/09/09 04:12:16;;;;;;;1.70;1.30;;;11.10;96.30;;;;;;4974765;28;20268;-79
2022/09/09 04:14:42;;;;;;;3.33;1.50;;;10.90;96.30;;;;;;4976468;28;20988;-79
2022/09/09 04:17:07;;;;;;;3.23;1.03;;;10.80;96.30;;;;;;4985183;28;20236;-79
2022/09/09 04:19:33;;;;;;;2.80;2.23;;;10.70;96.30;;;;;;4985797;28;20185;-79
2022/09/09 05:01:15;;;;;;;7.03;2.20;;;10.70;96.30;;;;;;4935619;28;20490;-81
2022/09/09 05:03:41;;;;;;;4.07;1.50;;;10.80;96.30;;;;;;4953342;28;20839;-81
2022/09/09 05:06:10;;;;;;;10.63;2.20;;;10.80;96.30;;;;;;4954350;28;20417;-79
2022/09/09 05:08:37;;;;;;;5.50;2.43;;;10.80;96.30;;;;;;4953942;28;20410;-79
2022/09/09 05:11:03;;;;;;;4.57;2.13;;;10.90;96.30;;;;;;4954200;28;20435;-80
2022/09/09 05:13:28;;;;;;;5.00;2.40;;;10.90;96.30;;;;;;4949293;28;20491;-80
2022/09/09 05:15:54;;;;;;;7.23;3.00;;;10.90;96.30;;;;;;4934022;29;20419;-80
2022/09/09 05:18:22;;;;;;;11.63;3.33;;;10.90;96.30;;;;;;4921702;29;20194;-79
2022/09/09 05:20:48;;;;;;;10.50;4.70;;;11.00;96.30;;;;;;4947190;29;20464;-78
2022/09/09 05:23:13;;;;;;;16.40;7.83;;;11.10;96.30;;;;;;4940762;29;20484;-78
2022/09/09 05:25:40;;;;;;;6.63;2.90;;;11.20;96.30;;;;;;4941046;29;20409;-80
2022/09/09 05:28:07;;;;;;;12.77;6.83;;;11.30;96.30;;;;;;4942823;29;20188;-76
2022/09/09 05:30:32;;;;;;;8.93;5.20;;;11.40;96.30;;;;;;4938890;29;20447;-76
2022/09/09 05:32:58;;;;;;;8.53;4.93;;;11.40;96.30;;;;;;4939899;29;20422;-77
2022/09/09 05:35:23;;;;;;;17.27;7.90;;;11.40;96.30;;;;;;4931585;29;20647;-77
2022/09/09 05:37:49;;;;;;;6.50;4.40;;;11.50;96.30;;;;;;4919703;29;20267;-79
2022/09/09 05:40:14;;;;;;;14.10;6.63;;;11.50;96.30;;;;;;4921002;29;20514;-77
2022/09/09 05:42:41;;;;;;;13.33;4.30;;;11.50;96.30;;;;;;4938315;29;20200;-76
2022/09/09 05:45:08;;;;;;;6.03;2.83;;;11.60;96.30;;;;;;4938464;29;20196;-78
2022/09/09 05:47:35;;;;;;;5.07;1.57;;;11.70;96.30;;;;;;4938405;29;20427;-77
2022/09/09 05:50:00;;;;;;;2.10;1.90;;;11.80;96.30;;;;;;4930999;29;20425;-77
2022/09/09 05:52:27;;;;;;;3.30;1.90;;;12.00;96.30;;;;;;4928260;29;20446;-77
2022/09/09 05:54:54;;;;;;;1.93;1.60;;;12.10;96.30;;;;;;4931701;29;20541;-77
2022/09/09 05:57:20;;;;;;;1.50;1.10;;;12.40;96.30;;;;;;4938257;29;20420;-77
2022/09/09 05:59:46;;;;;;;2.67;1.40;;;12.60;96.30;;;;;;4939268;29;20855;-78
2022/09/09 06:02:12;;;;;;;3.00;1.00;;;12.70;96.30;;;;;;4937882;29;20294;-76
2022/09/09 06:04:38;;;;;;;2.57;0.90;;;12.90;96.30;;;;;;4938797;29;20207;-77
2022/09/09 06:07:05;;;;;;;4.30;1.20;;;12.90;96.30;;;;;;4936854;29;20422;-76
2022/09/09 06:09:30;;;;;;;7.33;1.23;;;13.10;96.30;;;;;;4935934;29;20220;-77
2022/09/09 06:11:58;;;;;;;2.53;1.00;;;13.20;96.30;;;;;;4936957;29;20435;-77
2022/09/09 06:14:25;;;;;;;2.43;1.20;;;13.30;96.30;;;;;;4936755;29;20171;-77
2022/09/09 06:16:50;;;;;;;3.20;1.50;;;13.30;96.30;;;;;;4937017;29;20506;-77
2022/09/09 06:19:16;;;;;;;10.17;5.03;;;13.40;96.30;;;;;;4936671;29;20443;-78
2022/09/09 06:21:42;;;;;;;12.37;6.20;;;13.30;96.30;;;;;;4937532;29;20203;-76
2022/09/09 06:24:08;;;;;;;12.60;5.40;;;13.30;96.30;;;;;;4920297;29;20292;-77
2022/09/09 06:26:36;;;;;;;8.60;4.63;;;13.30;96.30;;;;;;4916484;29;20420;-77
2022/09/09 06:29:03;;;;;;;6.87;3.17;;;13.30;96.30;;;;;;4918014;29;20172;-77
2022/09/09 06:31:30;;;;;;;11.00;3.10;;;13.50;96.30;;;;;;4918390;29;20440;-77
2022/09/09 06:33:57;;;;;;;6.10;2.43;;;13.60;96.30;;;;;;4920394;29;20424;-77
2022/09/09 06:36:28;;;;;;;4.53;1.93;;;13.70;96.30;;;;;;4921317;29;20792;-76
2022/09/09 06:38:55;;;;;;;4.60;1.40;;;13.70;96.30;;;;;;4920399;29;20428;-77
2022/09/09 06:41:22;;;;;;;5.13;1.00;;;13.80;96.30;;;;;;4941613;28;20451;-77
2022/09/09 06:43:48;;;;;;;3.43;1.40;;;13.90;96.30;;;;;;4958687;28;20454;-77
2022/09/09 06:46:27;;;;;;;6.40;1.20;;;13.90;96.30;;;;;;4959349;28;20734;-77
2022/09/09 06:48:58;;;;;;;4.20;1.13;;;13.90;96.30;;;;;;4958237;29;20182;-78
2022/09/09 06:51:27;;;;;;;4.40;1.47;;;14.00;96.30;;;;;;4958945;29;20446;-77
2022/09/09 06:53:57;;;;;;;3.97;1.33;;;14.00;96.30;;;;;;4958268;28;20425;-77
2022/09/09 06:56:32;;;;;;;4.73;1.47;;;14.00;96.30;;;;;;4959853;28;20497;-77
2022/09/09 06:59:03;;;;;;;8.53;1.40;;;14.00;96.30;;;;;;4958773;28;20529;-77
2022/09/09 07:06:43;;;;;;;2.70;1.20;;;14.20;96.30;;;;;;4976679;28;20497;-77
2022/09/09 07:09:12;;;;;;;4.90;1.30;;;14.20;96.30;;;;;;4977494;28;20501;-77
2022/09/09 07:11:43;;;;;;;4.83;1.03;;;14.30;96.30;;;;;;4977115;28;20449;-78
2022/09/09 07:14:09;;;;;;;3.90;1.13;;;14.30;96.30;;;;;;4977337;28;20500;-77
2022/09/09 07:16:36;;;;;;;4.37;1.10;;;14.50;96.30;;;;;;4977076;28;20585;-77
2022/09/09 07:19:03;;;;;;;4.00;0.90;;;14.70;96.30;;;;;;4977679;28;20174;-78
2022/09/09 07:21:30;;;;;;;4.43;1.10;;;14.90;96.30;;;;;;4975133;28;20430;-77
2022/09/09 07:23:56;;;;;;;1.73;0.80;;;15.10;96.30;;;;;;4975322;28;20465;-77
2022/09/09 07:26:24;;;;;;;3.13;0.90;;;15.30;96.30;;;;;;4975360;28;20548;-77
2022/09/09 07:28:49;;;;;;;2.33;0.90;;;15.50;96.30;;;;;;4974992;28;20512;-77
2022/09/09 07:31:17;;;;;;;7.50;1.00;;;15.70;96.30;;;;;;4976102;28;20565;-77
2022/09/09 07:33:44;;;;;;;3.97;1.10;;;16.20;96.30;;;;;;4976092;28;20665;-79
2022/09/09 07:36:12;;;;;;;3.70;1.00;;;16.30;96.30;;;;;;4976196;28;20890;-77
2022/09/09 07:38:52;;;;;;;1.93;0.90;;;16.60;96.30;;;;;;4975709;28;20441;-77
2022/09/09 07:41:34;;;;;;;1.77;0.80;;;16.60;96.30;;;;;;4984177;23;21023;-77
2022/09/09 07:44:03;;;;;;;5.43;1.10;;;16.70;96.30;;;;;;4954459;28;20553;-77
2022/09/09 07:46:28;;;;;;;4.97;1.97;;;16.80;96.30;;;;;;4956254;28;20410;-77
2022/09/09 07:48:55;;;;;;;6.20;2.00;;;16.80;96.30;;;;;;4955268;29;20423;-77
2022/09/09 07:51:30;;;;;;;6.07;4.13;;;16.60;96.30;;;;;;4955204;28;20217;-79
2022/09/09 07:53:58;;;;;;;3.93;2.10;;;16.80;96.30;;;;;;4956472;28;20402;-77
2022/09/09 07:56:24;;;;;;;3.13;1.97;;;16.80;96.30;;;;;;4956170;28;20411;-77
2022/09/09 07:58:53;;;;;;;4.07;3.67;;;16.60;96.30;;;;;;4957452;28;20411;-77
2022/09/09 08:01:24;;;;;;;4.80;3.73;;;16.40;96.30;;;;;;4956171;28;20545;-77
2022/09/09 08:04:00;;;;;;;9.40;5.20;;;16.30;96.30;;;;;;4945933;28;20459;-77
2022/09/09 08:06:28;;;;;;;4.40;4.00;;;16.40;96.30;;;;;;4936181;29;20514;-77
2022/09/09 08:08:54;;;;;;;6.10;3.97;;;16.40;96.30;;;;;;4945198;28;20485;-77
2022/09/09 08:11:25;;;;;;;5.40;4.30;;;16.40;96.30;;;;;;4948884;29;20459;-77
2022/09/09 08:13:51;;;;;;;5.50;3.57;;;16.40;96.30;;;;;;4945683;29;20474;-79
2022/09/09 08:16:22;;;;;;;4.03;2.83;;;16.40;96.30;;;;;;4942601;29;20427;-80
2022/09/09 08:18:52;;;;;;;4.43;2.40;;;16.40;96.30;;;;;;4941767;29;20421;-80
2022/09/09 08:21:23;;;;;;;3.60;1.80;;;16.50;96.30;;;;;;4941615;29;20457;-80
2022/09/09 08:23:52;;;;;;;2.50;1.70;;;16.50;96.30;;;;;;4940714;29;20466;-79
2022/09/09 08:26:27;;;;;;;4.77;1.50;;;16.60;96.30;;;;;;4945114;29;20410;-80
2022/09/09 08:28:54;;;;;;;3.50;1.40;;;16.80;96.30;;;;;;4960875;29;20442;-80
2022/09/09 08:31:28;;;;;;;2.53;1.03;;;17.00;96.30;;;;;;4946352;29;20467;-80
2022/09/09 08:33:55;;;;;;;8.23;1.70;;;17.10;96.30;;;;;;4941521;29;20900;-80
2022/09/09 08:36:23;;;;;;;6.03;1.67;;;17.20;96.30;;;;;;4942061;29;20900;-80
2022/09/09 08:38:51;;;;;;;5.13;2.37;;;17.20;96.30;;;;;;4939995;29;20419;-80
2022/09/09 08:41:54;;;;;;;2.80;1.70;;;17.30;96.30;;;;;;4948492;28;20446;-80
2022/09/09 08:44:27;;;;;;;2.80;1.40;;;17.50;96.30;;;;;;4942540;29;20498;-80
2022/09/09 08:47:25;;;;;;;3.77;1.50;;;17.40;96.30;;;;;;4956254;29;20506;-80
2022/09/09 08:50:27;;;;;;;4.23;1.37;;;17.50;96.30;;;;;;4960602;29;20434;-80
2022/09/09 08:53:16;;;;;;;1.97;1.20;;;17.80;96.30;;;;;;4959081;29;20414;-80
2022/09/09 08:55:55;;;;;;;3.87;2.20;;;18.00;96.30;;;;;;4951754;29;20911;-80
2022/09/09 08:58:34;;;;;;;6.53;2.80;;;18.40;96.30;;;;;;4958295;29;20403;-80
2022/09/09 09:01:12;;;;;;;6.90;1.40;;;18.90;96.30;;;;;;4955994;29;20485;-80
2022/09/09 09:03:56;;;;;;;7.50;1.50;;;19.00;96.30;;;;;;4972354;29;20458;-81
2022/09/09 09:06:39;;;;;;;3.50;1.20;;;19.20;96.30;;;;;;4973303;29;20403;-80
2022/09/09 09:09:30;;;;;;;3.67;1.00;;;19.50;96.30;;;;;;4976379;28;20405;-79
2022/09/09 09:12:00;;;;;;;3.27;1.10;;;19.60;96.30;;;;;;4986466;28;20473;-80
2022/09/09 09:14:30;;;;;;;2.73;1.30;;;19.70;96.30;;;;;;4972928;28;20399;-80
2022/09/09 09:17:19;;;;;;;5.60;1.57;;;20.00;96.30;;;;;;4970467;28;20415;-80
2022/09/09 09:19:46;;;;;;;4.13;1.57;;;20.40;96.30;;;;;;4970621;29;20407;-80
2022/09/09 09:22:20;;;;;;;4.63;1.40;;;20.60;96.30;;;;;;4967745;29;20442;-80
2022/09/09 09:24:52;;;;;;;4.57;1.40;;;20.60;96.30;;;;;;4971059;29;20426;-80
2022/09/09 09:27:36;;;;;;;4.57;1.20;;;20.50;96.30;;;;;;4975093;29;20426;-80
2022/09/09 09:30:23;;;;;;;3.73;1.17;;;20.50;96.30;;;;;;4971093;29;20442;-80
2022/09/09 09:33:14;;;;;;;3.60;1.10;;;20.30;96.30;;;;;;4967682;29;20414;-81
2022/09/09 09:35:39;;;;;;;2.77;0.90;;;20.40;96.30;;;;;;4967196;29;20422;-80
2022/09/09 09:38:23;;;;;;;8.90;1.40;;;20.60;96.30;;;;;;4966481;28;20511;-80
2022/09/09 09:40:57;;;;;;;2.60;1.10;;;21.00;96.30;;;;;;4965044;28;20205;-80
2022/09/09 09:43:39;;;;;;;4.10;1.30;;;21.10;96.30;;;;;;4971315;28;20531;-80
2022/09/09 09:46:05;;;;;;;2.27;1.00;;;21.00;96.30;;;;;;4958694;29;20414;-81
2022/09/09 09:48:32;;;;;;;3.73;0.97;;;21.60;96.30;;;;;;4957885;29;20418;-79
2022/09/09 09:51:01;;;;;;;2.67;1.07;;;21.90;96.30;;;;;;4958385;29;20485;-80
2022/09/09 09:53:32;;;;;;;3.40;1.23;;;22.90;96.30;;;;;;4958128;29;20893;-79
2022/09/09 09:56:13;;;;;;;14.17;1.50;;;23.60;96.30;;;;;;4952959;29;20431;-80
2022/09/09 09:58:45;;;;;;;3.57;1.20;;;23.90;96.30;;;;;;4943243;29;20946;-80
2022/09/09 10:01:29;;;;;;;3.10;1.10;;;23.70;96.30;;;;;;4958942;28;20449;-81
2022/09/09 10:04:18;;;;;;;4.30;1.00;;;22.80;96.30;;;;;;4959651;28;20466;-81
2022/09/09 10:06:43;;;;;;;3.30;0.87;;;22.30;96.30;;;;;;4961579;28;20437;-80
2022/09/09 10:09:32;;;;;;;4.10;0.97;;;22.60;96.30;;;;;;4968949;28;20425;-80
2022/09/09 10:12:22;;;;;;;9.40;1.23;;;22.80;96.30;;;;;;4984999;28;20800;-80
2022/09/09 10:15:27;;;;;;;2.63;1.00;;;23.10;96.30;;;;;;4956681;28;20513;-78
2022/09/09 10:18:34;;;;;;;3.27;1.10;;;23.10;96.30;;;;;;4953888;28;20452;-82
2022/09/09 10:21:11;;;;;;;3.37;1.30;;;22.40;96.30;;;;;;4930584;29;20447;-79
2022/09/09 10:24:05;;;;;;;2.70;1.03;;;22.60;96.30;;;;;;4937385;29;20466;-79
2022/09/09 10:26:34;;;;;;;3.33;1.17;;;22.80;95.30;;;;;;4876701;29;20864;-79
2022/09/09 10:29:37;;;;;;;4.03;1.20;;;23.40;95.00;;;;;;4973227;28;20434;-79
2022/09/09 12:00:48;;;;;;;1.70;1.00;;;25.30;93.70;;;;;;4977553;28;20484;-80
2022/09/09 12:03:39;;;;;;;2.43;0.90;;;24.00;90.10;;;;;;4981902;28;20547;-80
2022/09/09 12:06:19;;;;;;;1.27;0.90;;;23.60;90.60;;;;;;4977846;28;21169;-79
2022/09/09 12:08:52;;;;;;;2.53;0.90;;;23.50;93.40;;;;;;4967551;28;20421;-80
2022/09/09 12:11:26;;;;;;;4.17;0.97;;;23.90;92.20;;;;;;4977843;28;20440;-78
2022/09/09 12:13:56;;;;;;;2.27;1.03;;;23.40;93.30;;;;;;4976858;28;20434;-78
2022/09/09 12:16:34;;;;;;;1.63;0.77;;;22.70;96.30;;;;;;4976549;28;20844;-78
2022/09/09 12:19:09;;;;;;;3.07;1.10;;;22.10;96.30;;;;;;4974815;28;20430;-78
2022/09/09 12:22:00;;;;;;;1.30;0.90;;;21.90;96.30;;;;;;4975447;28;20449;-78
2022/09/09 12:24:52;;;;;;;3.13;1.00;;;22.10;95.80;;;;;;4976271;28;20476;-78
2022/09/09 12:27:31;;;;;;;2.60;1.00;;;22.20;96.30;;;;;;4976493;28;20442;-78
2022/09/09 12:30:12;;;;;;;1.80;1.00;;;22.20;95.90;;;;;;4974836;28;20416;-78
2022/09/09 12:32:39;;;;;;;2.60;1.00;;;22.10;96.30;;;;;;4976449;28;20429;-78
2022/09/09 12:35:22;;;;;;;4.50;1.60;;;22.30;95.50;;;;;;4976218;28;20449;-78
2022/09/09 12:37:56;;;;;;;1.70;1.10;;;22.20;94.90;;;;;;4976748;28;20421;-81
2022/09/09 12:40:25;;;;;;;2.23;0.80;;;22.00;96.30;;;;;;4979128;28;20901;-78
2022/09/09 12:42:51;;;;;;;1.20;0.70;;;22.00;95.40;;;;;;4978249;28;20457;-78
2022/09/09 12:45:23;;;;;;;1.50;1.13;;;21.80;95.10;;;;;;4975676;28;20465;-78
2022/09/09 12:48:03;;;;;;;4.00;1.30;;;22.50;95.50;;;;;;4975107;28;20997;-83
2022/09/09 12:50:35;;;;;;;3.00;0.90;;;23.20;96.30;;;;;;4975420;28;20406;-79
2022/09/09 12:53:08;;;;;;;2.93;0.80;;;24.10;93.90;;;;;;4975314;28;20428;-80
2022/09/09 12:55:39;;;;;;;1.70;0.80;;;23.80;91.00;;;;;;4974323;28;20425;-77
2022/09/09 12:58:06;;;;;;;2.50;1.00;;;23.90;90.90;;;;;;4975199;28;20501;-80
2022/09/09 13:00:33;;;;;;;4.03;1.10;;;24.30;95.20;;;;;;4975219;28;20465;-79
2022/09/09 13:03:15;;;;;;;2.70;0.90;;;25.00;92.20;;;;;;4974100;28;20467;-79
2022/09/09 13:05:41;;;;;;;3.07;1.00;;;25.50;87.50;;;;;;4954599;29;20445;-78
2022/09/09 13:08:10;;;;;;;2.80;1.10;;;25.80;88.00;;;;;;4956292;28;20528;-78
2022/09/09 13:10:46;;;;;;;4.50;1.00;;;25.70;88.40;;;;;;4954943;29;20190;-78
2022/09/09 13:13:22;;;;;;;1.67;0.80;;;24.60;86.50;;;;;;4954675;28;20906;-78
2022/09/09 13:15:50;;;;;;;4.10;1.07;;;23.70;85.40;;;;;;4956071;29;20449;-78
2022/09/09 13:18:19;;;;;;;1.47;0.80;;;23.00;91.90;;;;;;4969947;28;20790;-78
2022/09/09 13:20:48;;;;;;;1.43;0.70;;;22.60;90.60;;;;;;4975229;28;20448;-78
2022/09/09 13:23:16;;;;;;;1.70;0.90;;;22.40;90.40;;;;;;4973566;28;20453;-78
2022/09/09 13:25:56;;;;;;;1.77;1.00;;;22.20;90.90;;;;;;4973963;28;20410;-78
2022/09/09 13:28:24;;;;;;;2.27;0.83;;;22.00;89.30;;;;;;4973386;28;21034;-78
2022/09/09 13:31:00;;;;;;;1.87;0.90;;;21.80;93.20;;;;;;4973653;28;20802;-78
2022/09/09 13:33:39;;;;;;;6.00;0.80;;;21.70;93.00;;;;;;4972584;28;20644;-77
2022/09/09 13:36:07;;;;;;;2.40;0.90;;;21.50;92.10;;;;;;4954396;29;20426;-78
2022/09/09 13:38:37;;;;;;;1.30;0.83;;;21.50;93.70;;;;;;4969272;28;21045;-77
2022/09/09 13:41:10;;;;;;;2.90;0.90;;;21.60;92.70;;;;;;4981212;28;20433;-77
2022/09/09 13:43:45;;;;;;;1.73;0.90;;;21.30;94.10;;;;;;4976136;28;20460;-77
2022/09/09 13:46:36;;;;;;;2.27;0.90;;;21.30;94.60;;;;;;4972185;28;20417;-78
2022/09/09 13:49:18;;;;;;;1.70;0.87;;;21.20;95.40;;;;;;4973388;28;20422;-77
2022/09/09 13:51:52;;;;;;;2.60;1.27;;;21.20;96.30;;;;;;4972064;28;20883;-77
2022/09/09 13:54:20;;;;;;;3.17;0.90;;;21.20;96.30;;;;;;4973523;28;20417;-77
2022/09/09 13:56:46;;;;;;;1.93;0.80;;;21.10;96.30;;;;;;4973481;28;20509;-77
2022/09/09 13:59:18;;;;;;;1.80;0.80;;;21.20;95.80;;;;;;4971746;28;20975;-77
2022/09/09 14:01:44;;;;;;;5.10;1.50;;;21.20;96.00;;;;;;4973556;28;21085;-77
2022/09/09 14:04:10;;;;;;;1.67;0.80;;;21.10;96.30;;;;;;4971982;28;20450;-77
2022/09/09 14:06:37;;;;;;;3.33;1.00;;;20.90;96.30;;;;;;4973791;28;20201;-79
2022/09/09 14:09:04;;;;;;;1.40;0.90;;;20.90;96.30;;;;;;4974074;28;20816;-79
2022/09/09 14:11:29;;;;;;;2.37;1.00;;;20.90;96.30;;;;;;4974983;28;20430;-79
2022/09/09 14:13:55;;;;;;;1.63;0.77;;;21.00;96.30;;;;;;4973414;28;20476;-79
2022/09/09 14:16:21;;;;;;;1.67;0.90;;;21.10;96.30;;;;;;4973275;28;20817;-79
2022/09/09 14:18:47;;;;;;;1.67;0.70;;;21.10;96.30;;;;;;4973105;28;20422;-79
2022/09/09 14:21:14;;;;;;;1.63;1.17;;;21.10;96.30;;;;;;4972147;28;20674;-79
2022/09/09 14:23:40;;;;;;;4.20;1.10;;;21.00;96.30;;;;;;4972356;28;20492;-79
2022/09/09 14:26:05;;;;;;;1.47;0.83;;;20.90;96.30;;;;;;4974172;28;20516;-79
2022/09/09 14:28:31;;;;;;;1.67;0.73;;;20.90;96.30;;;;;;4972994;28;20632;-79
2022/09/09 14:31:00;;;;;;;7.37;1.00;;;20.90;96.20;;;;;;4979860;28;20218;-80
2022/09/09 14:33:27;;;;;;;4.53;1.27;;;21.00;96.30;;;;;;4979423;28;20184;-79
2022/09/09 14:35:57;;;;;;;1.57;0.73;;;20.90;96.30;;;;;;4977071;28;21007;-80
2022/09/09 14:38:23;;;;;;;2.20;1.10;;;20.90;96.00;;;;;;4974168;28;20449;-80
2022/09/09 14:40:49;;;;;;;3.10;0.80;;;21.00;96.30;;;;;;4990313;28;20451;-79
2022/09/09 14:43:14;;;;;;;2.00;1.20;;;21.10;96.30;;;;;;4979567;28;20449;-80
2022/09/09 14:45:40;;;;;;;2.33;0.90;;;21.30;96.30;;;;;;4982445;28;20181;-81
2022/09/09 14:48:05;;;;;;;2.57;1.20;;;21.70;96.30;;;;;;4977241;28;20178;-80
2022/09/09 14:50:31;;;;;;;4.13;1.10;;;22.20;95.60;;;;;;4976058;28;20982;-80
2022/09/09 14:52:57;;;;;;;2.33;1.10;;;22.60;95.80;;;;;;4980714;28;20198;-79
2022/09/09 14:55:22;;;;;;;2.77;1.30;;;22.80;94.00;;;;;;4984578;28;20174;-80
2022/09/09 14:57:48;;;;;;;3.60;1.40;;;22.60;94.80;;;;;;4970781;28;20183;-81
2022/09/09 15:00:14;;;;;;;3.00;1.13;;;22.00;96.30;;;;;;4983214;28;20193;-77
2022/09/09 15:02:40;;;;;;;2.70;1.10;;;21.60;96.30;;;;;;4975646;28;20469;-78
2022/09/09 15:05:06;;;;;;;7.20;1.30;;;21.20;96.30;;;;;;4968441;28;20210;-78
2022/09/09 15:07:31;;;;;;;4.83;1.07;;;20.90;96.30;;;;;;4968948;28;20559;-78
2022/09/09 15:09:57;;;;;;;1.90;1.10;;;20.60;96.30;;;;;;4985320;28;20427;-78
2022/09/09 15:12:24;;;;;;;3.07;1.40;;;20.40;96.30;;;;;;4972770;28;20202;-81
2022/09/09 15:14:50;;;;;;;1.53;1.00;;;20.30;96.30;;;;;;4971516;28;20178;-80
2022/09/09 15:17:16;;;;;;;1.90;1.30;;;20.10;96.30;;;;;;4969530;28;20410;-79
2022/09/09 15:19:41;;;;;;;4.43;1.43;;;20.00;96.30;;;;;;4974349;28;20788;-81
2022/09/09 15:22:08;;;;;;;3.10;1.40;;;20.10;96.30;;;;;;4978598;28;20198;-80
2022/09/09 15:24:34;;;;;;;3.13;1.10;;;20.30;96.30;;;;;;4978327;28;20210;-79
2022/09/09 15:27:01;;;;;;;1.70;1.00;;;20.30;96.30;;;;;;4962541;28;20418;-79
2022/09/09 15:29:26;;;;;;;2.60;1.60;;;20.40;96.30;;;;;;4977409;28;20480;-79
2022/09/09 15:31:54;;;;;;;2.33;1.30;;;20.50;96.30;;;;;;4975942;28;21238;-79
2022/09/09 15:34:19;;;;;;;6.47;1.30;;;20.50;96.30;;;;;;4976395;28;20572;-80
2022/09/09 15:36:45;;;;;;;4.17;1.40;;;20.40;96.30;;;;;;4975119;28;20418;-80
2022/09/09 15:39:15;;;;;;;2.13;1.13;;;20.20;96.30;;;;;;4973939;28;20178;-80
2022/09/09 15:41:41;;;;;;;5.77;1.60;;;20.00;96.30;;;;;;4975535;28;20489;-80
2022/09/09 15:44:08;;;;;;;3.57;1.20;;;19.90;96.30;;;;;;4975248;28;20810;-80
2022/09/09 15:46:38;;;;;;;9.23;1.30;;;19.90;96.30;;;;;;4981322;28;20439;-80
2022/09/09 15:49:18;;;;;;;3.13;0.90;;;19.70;96.30;;;;;;4986331;28;20419;-80
2022/09/09 15:51:46;;;;;;;2.70;1.10;;;19.50;96.30;;;;;;4966062;28;20450;-80
2022/09/09 15:54:14;;;;;;;3.57;1.20;;;19.40;96.30;;;;;;4985169;28;20996;-80
2022/09/09 15:56:40;;;;;;;2.13;1.40;;;19.30;96.30;;;;;;4977740;28;20440;-80
2022/09/09 15:59:05;;;;;;;3.20;1.30;;;19.20;96.30;;;;;;4979852;28;20531;-80
2022/09/09 16:01:32;;;;;;;2.40;1.43;;;19.00;96.30;;;;;;4978439;28;20488;-80
2022/09/09 16:03:59;;;;;;;3.20;1.40;;;18.90;96.30;;;;;;4977817;28;20221;-80
2022/09/09 16:06:28;;;;;;;2.53;1.03;;;18.80;96.30;;;;;;4976146;28;20418;-80
2022/09/09 16:08:54;;;;;;;2.33;1.13;;;18.80;96.30;;;;;;4981075;28;20512;-80
2022/09/09 16:11:25;;;;;;;3.80;1.43;;;18.90;96.30;;;;;;4986937;28;20475;-80
2022/09/09 16:13:52;;;;;;;1.73;1.30;;;19.10;96.30;;;;;;4978051;28;20434;-78
2022/09/09 16:16:21;;;;;;;1.57;1.00;;;19.30;96.30;;;;;;4976900;28;20433;-80
2022/09/09 16:18:49;;;;;;;5.53;1.80;;;19.50;96.30;;;;;;4977135;28;20425;-80
2022/09/09 16:21:21;;;;;;;3.03;1.70;;;19.60;96.30;;;;;;4977526;28;20453;-80
2022/09/09 16:23:48;;;;;;;2.23;1.10;;;19.70;96.30;;;;;;4977912;28;20953;-79
2022/09/09 16:26:15;;;;;;;2.43;1.13;;;19.70;96.30;;;;;;4986533;28;20918;-79
2022/09/09 16:28:41;;;;;;;3.90;1.17;;;19.90;96.30;;;;;;4989494;28;20582;-79
2022/09/09 16:31:13;;;;;;;3.73;1.43;;;20.00;96.30;;;;;;4983302;28;20467;-79
2022/09/09 16:33:39;;;;;;;3.67;1.10;;;20.00;96.30;;;;;;4969333;28;20175;-80
2022/09/09 16:36:10;;;;;;;3.23;1.07;;;20.00;96.30;;;;;;4975071;28;20425;-79
2022/09/09 16:38:36;;;;;;;1.80;1.13;;;20.00;96.30;;;;;;4974182;28;20572;-79
2022/09/09 16:41:04;;;;;;;2.17;1.07;;;20.00;96.30;;;;;;4983599;28;20488;-79
2022/09/09 16:43:30;;;;;;;1.40;1.13;;;19.90;96.30;;;;;;4997575;28;20524;-79
2022/09/09 16:45:55;;;;;;;4.60;1.13;;;19.60;96.30;;;;;;4974994;28;20453;-79
2022/09/09 16:48:21;;;;;;;2.03;0.90;;;19.10;96.30;;;;;;4978266;28;20264;-80
2022/09/09 16:50:46;;;;;;;4.57;0.90;;;18.70;96.30;;;;;;4987261;28;20202;-79
2022/09/09 16:53:12;;;;;;;2.00;1.13;;;18.40;96.30;;;;;;4984508;28;20193;-79
2022/09/09 16:55:39;;;;;;;1.63;0.90;;;18.20;96.30;;;;;;4977212;28;20174;-79
2022/09/09 16:58:05;;;;;;;1.53;0.80;;;17.90;96.30;;;;;;4977010;28;20194;-79
2022/09/09 17:13:27;;;;;;;0.90;0.60;;;16.90;96.30;;;;;;5323927;23;20499;-79
2022/09/09 17:15:53;;;;;;;2.60;0.80;;;16.80;96.30;;;;;;4964739;28;20427;-79
2022/09/09 17:18:19;;;;;;;2.10;0.80;;;16.70;96.30;;;;;;4965383;28;20634;-79
2022/09/09 17:20:45;;;;;;;2.00;0.70;;;16.60;96.30;;;;;;4969729;28;20182;-80
2022/09/09 17:23:13;;;;;;;2.50;0.73;;;16.40;96.30;;;;;;4953204;28;20476;-79
2022/09/09 17:25:38;;;;;;;1.63;0.80;;;16.40;96.30;;;;;;4954344;29;20183;-79
2022/09/09 17:28:04;;;;;;;1.50;0.60;;;16.20;96.30;;;;;;4955714;28;20414;-80
2022/09/09 17:30:34;;;;;;;1.17;0.70;;;16.10;96.30;;;;;;4967875;28;20241;-79
2022/09/09 17:33:00;;;;;;;1.53;0.70;;;16.10;96.30;;;;;;4955988;28;20217;-79
2022/09/09 17:35:26;;;;;;;1.60;0.77;;;16.10;96.30;;;;;;4956032;28;20906;-79
2022/09/09 17:37:54;;;;;;;1.40;0.60;;;16.00;96.30;;;;;;4956483;29;20454;-79
2022/09/09 17:40:20;;;;;;;3.53;0.70;;;15.90;96.30;;;;;;4958826;28;20422;-79
2022/09/09 17:42:45;;;;;;;1.20;0.70;;;15.90;96.30;;;;;;4991086;28;21026;-79
2022/09/09 17:45:11;;;;;;;1.10;0.60;;;15.80;96.30;;;;;;4975332;28;20394;-80
2022/09/09 17:47:36;;;;;;;1.87;0.87;;;15.90;96.30;;;;;;4965747;28;20619;-78
2022/09/09 17:50:02;;;;;;;2.13;0.70;;;15.90;96.30;;;;;;4944637;29;20179;-79
2022/09/09 17:52:28;;;;;;;1.27;0.80;;;15.90;96.30;;;;;;4940591;28;20199;-79
2022/09/09 17:54:56;;;;;;;1.20;0.60;;;15.90;96.30;;;;;;4937330;29;20175;-79
2022/09/09 17:57:22;;;;;;;1.00;0.60;;;15.90;96.30;;;;;;4946042;29;20185;-81
2022/09/09 17:59:49;;;;;;;0.90;0.63;;;15.90;96.30;;;;;;4953441;28;20578;-81
2022/09/09 21:37:02;;;;;;;1.47;0.60;;;14.20;96.30;;;;;;4971346;28;20466;-80
2022/09/09 21:39:28;;;;;;;2.10;0.77;;;14.20;96.30;;;;;;4972564;28;20433;-80
2022/09/09 21:41:53;;;;;;;1.10;0.70;;;14.10;96.30;;;;;;4974281;28;20777;-80
2022/09/09 21:44:19;;;;;;;2.27;0.93;;;14.20;96.30;;;;;;4954037;28;20294;-80
2022/09/09 21:46:45;;;;;;;5.33;1.80;;;14.20;96.30;;;;;;4954243;29;20214;-79
2022/09/09 21:49:11;;;;;;;1.47;0.77;;;14.30;96.30;;;;;;4954116;29;20928;-81
2022/09/09 21:51:36;;;;;;;2.30;0.90;;;14.30;96.30;;;;;;4954824;29;20555;-80
2022/09/09 21:54:02;;;;;;;1.70;0.80;;;14.30;96.30;;;;;;4954736;28;20203;-80
2022/09/09 21:56:27;;;;;;;1.10;0.80;;;14.30;96.30;;;;;;4954673;29;20186;-80
2022/09/09 21:58:55;;;;;;;3.43;1.00;;;14.30;96.30;;;;;;4954415;29;20179;-80
2022/09/09 22:01:23;;;;;;;2.23;0.63;;;14.30;96.30;;;;;;4954079;29;20179;-80
2022/09/09 22:03:49;;;;;;;1.23;0.83;;;14.30;96.30;;;;;;4955412;28;20474;-80
2022/09/09 22:06:16;;;;;;;4.27;0.90;;;14.20;96.30;;;;;;4958827;29;20410;-80
2022/09/09 22:08:41;;;;;;;1.90;0.70;;;14.20;96.30;;;;;;4958774;28;20227;-80
2022/09/09 22:11:11;;;;;;;2.90;1.00;;;14.10;96.30;;;;;;4976637;28;20413;-79
2022/09/09 22:13:37;;;;;;;1.30;0.73;;;14.00;96.30;;;;;;4978045;28;20225;-79
2022/09/09 22:16:05;;;;;;;1.30;0.90;;;13.90;96.30;;;;;;4977925;28;20410;-78
2022/09/09 22:18:31;;;;;;;2.47;0.87;;;13.80;96.30;;;;;;4976438;28;20186;-79
2022/09/09 22:20:58;;;;;;;1.53;0.70;;;13.80;96.30;;;;;;4976800;28;20433;-79
2022/09/09 22:23:24;;;;;;;1.20;0.67;;;13.90;96.30;;;;;;4977425;28;20212;-80
2022/09/09 22:25:51;;;;;;;1.70;0.80;;;13.90;96.30;;;;;;4976205;28;20504;-79
2022/09/09 22:28:17;;;;;;;1.27;0.77;;;13.80;96.30;;;;;;4977517;28;20553;-79
2022/09/09 22:30:42;;;;;;;1.50;0.70;;;13.80;96.30;;;;;;4978155;28;20405;-79
2022/09/09 22:33:08;;;;;;;3.13;0.80;;;13.80;96.30;;;;;;4977371;28;20561;-79
2022/09/09 22:35:41;;;;;;;2.70;0.80;;;13.80;96.30;;;;;;4976792;28;20190;-78
2022/09/09 22:38:10;;;;;;;3.43;0.90;;;13.80;96.30;;;;;;4976521;28;20193;-78
2022/09/09 22:40:40;;;;;;;2.50;0.90;;;13.70;96.30;;;;;;4971196;28;20450;-80
2022/09/09 22:43:12;;;;;;;1.57;0.90;;;13.70;96.30;;;;;;4956250;28;20504;-79
2022/09/09 22:45:38;;;;;;;3.30;0.90;;;13.80;96.30;;;;;;4958071;28;20403;-79
2022/09/09 22:48:03;;;;;;;4.70;0.97;;;13.70;96.30;;;;;;4956668;28;20418;-78
2022/09/09 22:50:34;;;;;;;3.10;1.10;;;13.70;96.30;;;;;;4957573;28;20175;-79
2022/09/09 22:52:59;;;;;;;3.00;0.70;;;13.70;96.30;;;;;;4958659;28;20199;-79
2022/09/09 22:55:26;;;;;;;1.70;0.80;;;13.70;96.30;;;;;;4957106;29;20422;-80
2022/09/09 22:57:52;;;;;;;2.60;0.83;;;13.60;96.30;;;;;;4957657;28;20241;-78
2022/09/09 23:00:17;;;;;;;2.90;0.83;;;13.50;96.30;;;;;;4957724;28;20902;-78
2022/09/09 23:02:43;;;;;;;3.50;0.80;;;13.30;96.30;;;;;;4957470;28;20270;-79